Coalton, West Virginia
Current Conditions -  °F | °C
As of 7:51 PM on Saturday 25 Oct 2014 (Local Time) from KEKN Reporting Station
Clear Clear  
Wind Chill: 59°   Ceiling: Unl
Heat Index: 59°   Visibility: 10mi
Dew Point: 48°   Wind: 12mph
Humidity: 67%   Direction: 260°W
Pressure: 29.87"   Gusts: 18mph
Location:  38.9°N, 79.97°W
Report Text: KEKN 252351Z AUTO 26010G16KT 10SM CLR 15/09 A2987 RMK AO2 SLP127 T01500089 10183 20144 57006 TSNO
Loading
Personal Weather Stations






























Interactive Weather Map
Tropical Storm Tracking
New forecast layout! Learn more

10-Day Weather Forecast

Advertisements
Track Severe Weather on mobile